SBOSBO GSO / KGSO
Speedbird OnlineSpeedbird Online GSO / KGSO

Piedmont Triad International Airport
17:08 25.2°C

Location Greensboro, United States
Latitude: 36.097801208496094
Longitude: -79.93730163574219
Local Time 17:08 on 20 May 2024
UTC -4 hours (America/New_York)
Currency £1 equals USD 1.27
METAR KGSO 202054Z 09007KT 10SM BKN055 25/14 A3000 RMK AO2 SLP150 T02500139 58008
TAF KGSO 201729Z 2018/2118 06008KT P6SM SCT035 TEMPO 2109/2112 3SM BR SKC
Weather As Of 20 May 2024 17:08
Description Broken clouds
Wind 13 km/h from East (90°)
Cloud Cover 75%
Precipitation Rain: none, Snow: none
Sunrise 06:09
Sunset 20:22
Rebooking East Coast Severe Weather 09JAN24 - Customer Guidelines
Web Wikipedia
Codes IATA: GSO
ICAO: KGSO
Altitude 282 Meter / 925 Feet
Distance 6,313 KM / 3,923 Miles
from London.
Runways
RunwayLength (m)Surface
05L2743ASPH
05R3048ASPH-G
141945Asphalt
23L3048ASPH-G
23R2743ASPH
321945Asphalt
Radio
TypeDescriptionFrequency
A/DAPP/DEP118.5
ATISATIS128.55
CLDCLNC DEL121.75
GNDGND121.9
TWRTWR119.1
UNICUNICOM122.95
Live ATC



Support Speedbird Online

© 2017-2024 Speedbird Online